createdAt,value
2022-08-25T00:02:07.878Z,99.90
2022-08-25T00:04:37.161Z,99.90
2022-08-25T00:07:07.806Z,99.90
2022-08-25T00:09:38.581Z,99.90
2022-08-25T00:12:08.703Z,99.90
2022-08-25T00:14:37.737Z,99.90
2022-08-25T00:17:07.407Z,99.90
2022-08-25T00:19:40.414Z,99.90
2022-08-25T00:22:10.005Z,99.90
2022-08-25T00:24:37.453Z,99.90
2022-08-25T00:27:04.976Z,99.90
2022-08-25T00:29:38.180Z,99.90
2022-08-25T00:32:07.833Z,99.90
2022-08-25T00:34:37.914Z,99.90
2022-08-25T00:37:10.042Z,99.90
2022-08-25T00:39:39.341Z,99.90
2022-08-25T00:42:13.415Z,99.90
2022-08-25T00:44:48.662Z,99.90
2022-08-25T00:47:17.614Z,99.90
2022-08-25T00:50:06.724Z,99.90
2022-08-25T00:52:43.621Z,99.90
2022-08-25T00:55:28.074Z,99.90
2022-08-25T00:58:07.579Z,99.90
2022-08-25T01:00:48.342Z,99.90
2022-08-25T01:03:33.201Z,99.90
2022-08-25T01:06:04.347Z,99.90
2022-08-25T01:08:39.566Z,99.90
2022-08-25T01:11:10.049Z,99.90
2022-08-25T01:13:52.629Z,99.90
2022-08-25T01:16:26.381Z,99.90
2022-08-25T01:19:00.504Z,99.90
2022-08-25T01:21:30.955Z,99.90
2022-08-25T01:24:01.237Z,99.90
2022-08-25T01:26:35.087Z,99.90
2022-08-25T01:29:21.886Z,99.90
2022-08-25T01:31:51.117Z,99.90
2022-08-25T01:34:23.159Z,99.90
2022-08-25T01:36:53.722Z,99.90
2022-08-25T01:39:22.502Z,99.90
2022-08-25T01:42:01.861Z,99.90
2022-08-25T01:44:32.152Z,99.90
2022-08-25T01:46:59.261Z,99.90
2022-08-25T01:49:31.459Z,99.90
2022-08-25T01:52:11.244Z,99.90
2022-08-25T01:54:38.929Z,99.90
2022-08-25T01:57:09.458Z,99.90
2022-08-25T01:59:39.954Z,99.90
2022-08-25T02:02:07.583Z,99.90
2022-08-25T02:04:37.985Z,99.90
2022-08-25T02:07:09.131Z,99.90
2022-08-25T02:09:38.362Z,99.90
2022-08-25T02:12:09.560Z,99.90
2022-08-25T02:14:37.751Z,99.90
2022-08-25T02:17:06.632Z,99.90
2022-08-25T02:19:33.845Z,99.90
2022-08-25T02:22:04.378Z,99.90
2022-08-25T02:24:38.582Z,99.90
2022-08-25T02:27:10.120Z,99.90
2022-08-25T02:29:42.484Z,99.90
2022-08-25T02:32:15.533Z,99.90
2022-08-25T02:34:42.918Z,99.90
2022-08-25T02:37:15.125Z,99.90
2022-08-25T02:39:44.524Z,99.90
2022-08-25T02:42:14.637Z,99.90
2022-08-25T02:44:46.244Z,99.90
2022-08-25T02:47:13.489Z,99.90
2022-08-25T02:49:43.055Z,99.90
2022-08-25T02:52:10.153Z,99.90
2022-08-25T02:54:40.150Z,99.90
2022-08-25T02:57:11.783Z,99.90
2022-08-25T02:59:39.318Z,99.90
2022-08-25T03:02:06.509Z,99.90
2022-08-25T03:04:38.330Z,99.90
2022-08-25T03:07:05.743Z,99.90
2022-08-25T03:09:38.237Z,99.90
2022-08-25T03:12:11.010Z,99.90
2022-08-25T03:14:40.841Z,99.90
2022-08-25T03:17:10.679Z,99.90
2022-08-25T03:19:37.809Z,99.90
2022-08-25T03:22:07.184Z,99.90
2022-08-25T03:24:39.299Z,99.90
2022-08-25T03:27:09.010Z,99.90
2022-08-25T03:29:38.786Z,99.90
2022-08-25T03:32:06.657Z,99.90
2022-08-25T03:34:36.369Z,99.90
2022-08-25T03:37:08.579Z,99.90
2022-08-25T03:39:40.409Z,99.90
2022-08-25T03:42:12.622Z,99.90
2022-08-25T03:44:39.958Z,99.90
2022-08-25T03:47:09.480Z,99.90
2022-08-25T03:49:41.849Z,99.90
2022-08-25T03:52:11.347Z,99.90
2022-08-25T03:54:43.001Z,99.90
2022-08-25T03:57:17.953Z,99.90
2022-08-25T03:59:47.263Z,99.90
2022-08-25T04:02:17.191Z,99.90
2022-08-25T04:04:50.278Z,99.90
2022-08-25T04:07:22.696Z,99.90
2022-08-25T04:09:49.776Z,99.90
2022-08-25T04:12:19.348Z,99.90
2022-08-25T04:14:47.976Z,99.90
2022-08-25T04:17:17.546Z,99.90
2022-08-25T04:19:51.984Z,99.90
2022-08-25T04:22:24.314Z,99.90
2022-08-25T04:24:54.102Z,99.90
2022-08-25T04:27:26.301Z,99.90
2022-08-25T04:29:56.033Z,99.90
2022-08-25T04:32:23.185Z,99.90
2022-08-25T04:34:50.368Z,99.90
2022-08-25T04:37:17.726Z,99.90
2022-08-25T04:39:49.644Z,99.90
2022-08-25T04:42:21.965Z,99.90
2022-08-25T04:44:54.386Z,99.90
2022-08-25T04:47:24.140Z,99.90
2022-08-25T04:49:53.975Z,99.90
2022-08-25T04:52:24.306Z,99.90
2022-08-25T04:54:53.699Z,99.90
2022-08-25T04:57:21.010Z,99.90
2022-08-25T04:59:48.487Z,99.90
2022-08-25T05:02:20.621Z,99.90
2022-08-25T05:04:50.449Z,99.90
2022-08-25T05:07:27.567Z,99.90
2022-08-25T05:10:00.401Z,99.90
2022-08-25T05:12:29.991Z,99.90
2022-08-25T05:15:22.891Z,99.90
2022-08-25T05:17:55.206Z,99.90
2022-08-25T05:20:27.762Z,99.90
2022-08-25T05:23:00.313Z,99.90
2022-08-25T05:25:29.962Z,99.90
2022-08-25T05:28:01.670Z,99.90
2022-08-25T05:30:31.937Z,99.90
2022-08-25T05:32:59.336Z,99.90
2022-08-25T05:35:28.603Z,99.90
2022-08-25T05:37:58.897Z,99.90
2022-08-25T05:40:26.259Z,99.90
2022-08-25T05:42:54.469Z,99.90
2022-08-25T05:45:26.891Z,99.90
2022-08-25T05:47:54.051Z,99.90
2022-08-25T05:50:25.997Z,99.90
2022-08-25T05:52:55.446Z,99.90
2022-08-25T05:55:22.649Z,99.90
2022-08-25T05:57:52.246Z,99.90
2022-08-25T06:00:21.769Z,99.90
2022-08-25T06:02:51.248Z,99.90
2022-08-25T06:05:25.682Z,99.90
2022-08-25T06:07:55.346Z,99.90
2022-08-25T06:10:22.674Z,99.90
2022-08-25T06:12:51.998Z,99.90
2022-08-25T06:15:24.785Z,99.90
2022-08-25T06:18:00.993Z,99.90
2022-08-25T06:20:34.383Z,99.90
2022-08-25T06:23:08.523Z,99.90
2022-08-25T06:25:40.143Z,99.90
2022-08-25T06:28:07.501Z,99.90
2022-08-25T06:30:39.246Z,99.90
2022-08-25T06:33:08.838Z,99.90
2022-08-25T06:35:40.957Z,99.90
2022-08-25T06:38:08.145Z,99.90
2022-08-25T06:40:37.425Z,99.90
2022-08-25T06:43:08.766Z,99.90
2022-08-25T06:45:35.976Z,99.90
2022-08-25T06:48:03.424Z,99.90
2022-08-25T06:50:35.674Z,99.90
2022-08-25T06:53:05.954Z,99.90
2022-08-25T06:55:36.200Z,99.90
2022-08-25T06:58:10.287Z,99.90
2022-08-25T07:00:43.964Z,99.90
2022-08-25T07:03:11.713Z,99.90
2022-08-25T07:05:43.924Z,99.90
2022-08-25T07:08:18.450Z,99.90
2022-08-25T07:10:50.889Z,99.90
2022-08-25T07:13:21.004Z,99.90
2022-08-25T07:15:53.157Z,99.90
2022-08-25T07:18:22.114Z,99.90
2022-08-25T07:20:52.129Z,99.90
2022-08-25T07:23:19.902Z,99.90
2022-08-25T07:25:47.909Z,99.90
2022-08-25T07:28:17.999Z,99.90
2022-08-25T07:30:45.774Z,99.90
2022-08-25T07:33:24.294Z,99.90
2022-08-25T07:35:54.212Z,99.90
2022-08-25T07:38:21.646Z,99.90
2022-08-25T07:41:00.782Z,99.90
2022-08-25T07:43:35.200Z,99.90
2022-08-25T07:46:06.602Z,99.90
2022-08-25T07:48:39.566Z,99.90
2022-08-25T07:51:12.043Z,99.90
2022-08-25T07:53:46.746Z,99.90
2022-08-25T07:56:21.611Z,99.90
2022-08-25T07:58:49.142Z,99.90
2022-08-25T08:01:22.325Z,99.90
2022-08-25T08:03:52.934Z,99.90
2022-08-25T08:06:23.983Z,99.90
2022-08-25T08:08:58.901Z,99.90
2022-08-25T08:11:31.750Z,99.90
2022-08-25T08:14:04.220Z,99.90
2022-08-25T08:16:33.188Z,99.90
2022-08-25T08:19:03.153Z,99.90
2022-08-25T08:21:33.896Z,99.90
2022-08-25T08:24:14.912Z,99.90
2022-08-25T08:26:58.899Z,99.90
2022-08-25T08:29:28.782Z,99.90
2022-08-25T08:31:55.916Z,99.90
2022-08-25T08:34:26.422Z,99.90
2022-08-25T08:37:03.158Z,99.90
2022-08-25T08:39:33.362Z,99.90
2022-08-25T08:42:23.892Z,99.90
2022-08-25T08:45:35.587Z,99.90
2022-08-25T08:48:45.651Z,99.90
2022-08-25T08:51:42.274Z,99.90
2022-08-25T08:54:21.028Z,99.90
2022-08-25T08:57:17.482Z,99.90
2022-08-25T08:59:59.917Z,99.90
2022-08-25T09:02:51.839Z,99.90
2022-08-25T09:05:27.090Z,99.90
2022-08-25T09:08:03.207Z,99.90
2022-08-25T09:10:44.469Z,99.90
2022-08-25T09:13:31.698Z,99.90
2022-08-25T09:16:38.687Z,99.90
2022-08-25T09:19:21.231Z,99.90
2022-08-25T09:22:33.881Z,99.90
2022-08-25T09:28:43.055Z,99.90
2022-08-25T09:31:39.040Z,99.90
2022-08-25T09:34:19.394Z,99.90
2022-08-25T09:36:52.820Z,99.90
2022-08-25T09:39:23.792Z,99.90
2022-08-25T09:42:00.216Z,99.90
2022-08-25T09:44:43.824Z,99.90
2022-08-25T09:47:32.754Z,99.90
2022-08-25T09:50:05.496Z,99.90
2022-08-25T09:52:37.432Z,99.90
2022-08-25T09:55:08.399Z,99.90
2022-08-25T09:57:44.530Z,99.90
2022-08-25T10:00:24.173Z,99.90
2022-08-25T10:03:14.394Z,99.90
2022-08-25T10:06:04.769Z,99.90
2022-08-25T10:08:39.646Z,99.90
2022-08-25T10:11:15.299Z,99.90
2022-08-25T10:13:51.410Z,99.90
2022-08-25T10:16:29.756Z,99.90
2022-08-25T10:19:21.963Z,99.90
2022-08-25T10:22:24.852Z,99.90
2022-08-25T10:24:52.855Z,99.90
2022-08-25T10:27:39.169Z,99.90
2022-08-25T10:30:20.091Z,99.90
2022-08-25T10:33:06.306Z,99.90
2022-08-25T10:36:01.522Z,99.90
2022-08-25T10:38:39.969Z,99.90
2022-08-25T10:42:00.128Z,99.90
2022-08-25T10:45:21.587Z,99.90
2022-08-25T10:48:09.663Z,99.90
2022-08-25T10:50:49.004Z,99.90
2022-08-25T10:53:39.402Z,99.90
2022-08-25T10:56:23.249Z,99.90
2022-08-25T10:58:55.973Z,99.90
2022-08-25T11:01:43.604Z,99.90
2022-08-25T11:04:28.336Z,99.90
2022-08-25T11:07:10.518Z,99.90
2022-08-25T11:09:45.877Z,99.90
2022-08-25T11:12:28.985Z,99.90
2022-08-25T11:15:02.486Z,99.90
2022-08-25T11:17:52.618Z,99.90
2022-08-25T11:20:28.540Z,99.90
2022-08-25T11:23:11.991Z,99.90
2022-08-25T11:25:46.039Z,99.90
2022-08-25T11:28:32.413Z,99.90
2022-08-25T11:31:08.868Z,99.90
2022-08-25T11:33:39.370Z,99.90
2022-08-25T11:36:33.072Z,99.90
2022-08-25T11:39:02.863Z,99.90
2022-08-25T11:41:41.613Z,99.90
2022-08-25T11:44:29.861Z,99.90
2022-08-25T11:47:00.231Z,99.90
2022-08-25T11:49:51.866Z,99.90
2022-08-25T11:52:36.566Z,99.90
2022-08-25T11:55:16.661Z,99.90
2022-08-25T11:57:51.629Z,99.90
2022-08-25T12:00:56.657Z,99.90
2022-08-25T12:03:34.541Z,99.90
2022-08-25T12:06:22.353Z,99.90
2022-08-25T12:09:03.085Z,99.90
2022-08-25T12:11:48.755Z,99.90
2022-08-25T12:14:28.130Z,99.90
2022-08-25T12:16:55.742Z,99.90
2022-08-25T12:19:34.896Z,99.90
2022-08-25T12:22:03.478Z,99.90
2022-08-25T12:24:47.533Z,99.90
2022-08-25T12:27:35.839Z,99.90
2022-08-25T12:30:18.686Z,99.90
2022-08-25T12:33:13.307Z,99.90
2022-08-25T12:36:01.042Z,99.90
2022-08-25T12:38:31.694Z,99.90
2022-08-25T12:41:33.783Z,99.90
2022-08-25T12:44:32.794Z,99.90
2022-08-25T12:47:32.215Z,99.90
2022-08-25T12:50:39.467Z,99.90
2022-08-25T12:53:33.021Z,99.90
2022-08-25T12:56:21.993Z,99.90
2022-08-25T12:59:12.602Z,99.90
2022-08-25T13:02:03.051Z,99.90
2022-08-25T13:05:11.795Z,99.90
2022-08-25T13:07:50.845Z,99.90
2022-08-25T13:10:24.035Z,99.90
2022-08-25T13:13:02.414Z,99.90
2022-08-25T13:15:45.143Z,99.90
2022-08-25T13:18:28.988Z,99.90
2022-08-25T13:21:06.269Z,99.90
2022-08-25T13:23:37.932Z,99.90
2022-08-25T13:26:16.980Z,99.90
2022-08-25T13:28:58.981Z,99.90
2022-08-25T13:31:30.122Z,99.90
2022-08-25T13:34:08.663Z,99.90
2022-08-25T13:37:05.985Z,99.90
2022-08-25T13:39:55.820Z,99.90
2022-08-25T13:42:28.990Z,99.90
2022-08-25T13:44:57.260Z,99.90
2022-08-25T13:47:46.011Z,99.90
2022-08-25T13:50:37.031Z,99.90
2022-08-25T13:53:22.288Z,99.90
2022-08-25T13:55:58.495Z,99.90
2022-08-25T13:58:44.492Z,99.90
2022-08-25T14:01:48.324Z,99.90
2022-08-25T14:04:50.770Z,99.90
2022-08-25T14:07:34.258Z,99.90
2022-08-25T14:10:31.639Z,99.90
2022-08-25T14:13:31.010Z,99.90
2022-08-25T14:16:08.896Z,99.90
2022-08-25T14:18:45.970Z,99.90
2022-08-25T14:21:15.902Z,99.90
2022-08-25T14:23:43.679Z,99.40
2022-08-25T14:26:10.798Z,99.30
2022-08-25T14:28:42.384Z,99.70
2022-08-25T14:31:15.975Z,99.10
2022-08-25T14:33:52.910Z,99.20
2022-08-25T14:36:31.925Z,98.00
2022-08-25T14:39:05.911Z,97.00
2022-08-25T14:41:41.195Z,96.50
2022-08-25T14:44:10.229Z,95.60
2022-08-25T14:46:48.452Z,94.60
2022-08-25T14:49:24.662Z,94.30
2022-08-25T14:51:55.443Z,94.10
2022-08-25T14:54:27.354Z,93.70
2022-08-25T14:57:02.027Z,93.60
2022-08-25T14:59:29.142Z,92.60
2022-08-25T15:01:59.094Z,92.00
2022-08-25T15:04:30.165Z,91.80
2022-08-25T15:07:23.479Z,92.40
2022-08-25T15:09:55.686Z,93.10
2022-08-25T15:12:46.197Z,93.40
2022-08-25T15:15:14.906Z,92.70
2022-08-25T15:17:47.106Z,92.70
2022-08-25T15:20:16.782Z,93.20
2022-08-25T15:22:48.072Z,92.80
2022-08-25T15:25:18.294Z,92.80
2022-08-25T15:27:46.065Z,91.70
2022-08-25T15:30:15.933Z,92.00
2022-08-25T15:32:48.442Z,91.20
2022-08-25T15:35:23.311Z,91.30
2022-08-25T15:37:58.766Z,92.60
2022-08-25T15:40:28.711Z,92.80
2022-08-25T15:43:00.873Z,92.10
2022-08-25T15:45:28.292Z,91.30
2022-08-25T15:47:55.559Z,91.10
2022-08-25T15:50:26.819Z,90.10
2022-08-25T15:52:56.702Z,90.50
2022-08-25T15:55:28.780Z,90.20
2022-08-25T15:57:58.496Z,90.20
2022-08-25T16:00:31.844Z,90.30
2022-08-25T16:05:47.884Z,87.90
2022-08-25T16:28:25.454Z,73.90
2022-08-25T16:33:28.326Z,77.30
2022-08-25T16:36:09.889Z,60.00
2022-08-25T16:38:49.103Z,62.30
2022-08-25T16:41:22.951Z,63.30
2022-08-25T16:43:54.756Z,65.50
2022-08-25T16:46:27.328Z,67.10
2022-08-25T16:48:57.395Z,68.20
2022-08-25T16:51:29.853Z,70.10
2022-08-25T16:54:22.174Z,71.00
2022-08-25T16:56:54.648Z,73.10
2022-08-25T16:59:23.503Z,73.40
2022-08-25T17:01:54.787Z,74.90
2022-08-25T17:04:27.545Z,77.70
2022-08-25T17:06:59.788Z,80.30
2022-08-25T17:09:29.593Z,81.90
2022-08-25T17:12:01.451Z,82.30
2022-08-25T17:14:33.180Z,85.10
2022-08-25T17:17:03.341Z,86.10
2022-08-25T17:19:39.478Z,87.70
2022-08-25T17:22:15.776Z,89.60
2022-08-25T17:24:46.213Z,90.70
2022-08-25T17:27:30.190Z,91.60
2022-08-25T17:30:00.673Z,92.30
2022-08-25T17:32:28.947Z,93.20
2022-08-25T17:34:59.477Z,94.20
2022-08-25T17:37:29.367Z,94.90
2022-08-25T17:40:02.988Z,95.00
2022-08-25T17:42:31.778Z,95.30
2022-08-25T17:45:03.889Z,96.00
2022-08-25T17:47:33.646Z,99.90
2022-08-25T17:50:04.008Z,97.90
2022-08-25T17:52:35.816Z,96.60
2022-08-25T17:55:08.518Z,96.20
2022-08-25T17:57:38.282Z,96.40
2022-08-25T18:00:12.614Z,96.10
2022-08-25T18:02:40.976Z,95.70
2022-08-25T18:05:09.602Z,95.90
2022-08-25T18:07:37.392Z,96.40
2022-08-25T18:10:08.852Z,96.40
2022-08-25T18:12:41.121Z,97.00
2022-08-25T18:15:11.047Z,96.80
2022-08-25T18:17:41.631Z,97.00
2022-08-25T18:20:13.944Z,98.40
2022-08-25T18:22:44.505Z,99.90
2022-08-25T18:25:15.744Z,99.90
2022-08-25T18:27:46.924Z,99.90
2022-08-25T18:30:26.187Z,97.20
2022-08-25T18:32:54.546Z,96.80
2022-08-25T18:35:21.935Z,96.60
2022-08-25T18:38:12.764Z,96.80
2022-08-25T18:40:41.065Z,99.90
2022-08-25T18:43:11.758Z,96.40
2022-08-25T18:45:50.244Z,96.70
2022-08-25T18:48:20.055Z,96.40
2022-08-25T18:50:51.879Z,96.70
2022-08-25T18:53:36.757Z,96.00
2022-08-25T18:56:13.198Z,97.10
2022-08-25T18:58:43.120Z,97.50
2022-08-25T19:01:13.773Z,98.60
2022-08-25T19:03:44.486Z,98.70
2022-08-25T19:06:12.051Z,99.90
2022-08-25T19:08:42.079Z,99.90
2022-08-25T19:11:10.158Z,99.90
2022-08-25T19:13:38.641Z,96.60
2022-08-25T19:16:17.592Z,96.10
2022-08-25T19:18:49.083Z,96.00
2022-08-25T19:21:24.974Z,95.90
2022-08-25T19:23:53.468Z,96.30
2022-08-25T19:26:25.829Z,96.20
2022-08-25T19:28:56.576Z,96.10
2022-08-25T19:31:27.322Z,99.90
2022-08-25T19:33:59.024Z,96.20
2022-08-25T19:36:28.043Z,98.10
2022-08-25T19:39:01.582Z,98.10
2022-08-25T19:41:31.282Z,97.70
2022-08-25T19:43:59.436Z,97.60
2022-08-25T19:46:32.843Z,97.80
2022-08-25T19:49:17.371Z,97.50
2022-08-25T19:51:51.037Z,97.50
2022-08-25T19:54:28.654Z,97.30
2022-08-25T19:57:06.632Z,97.20
2022-08-25T19:59:42.657Z,97.20
2022-08-25T20:02:19.945Z,97.40
2022-08-25T20:04:50.326Z,98.50
2022-08-25T20:07:26.242Z,98.00
2022-08-25T20:09:59.623Z,98.30
2022-08-25T20:12:27.844Z,99.90
2022-08-25T20:14:55.794Z,99.90
2022-08-25T20:17:26.199Z,98.30
2022-08-25T20:20:00.439Z,99.40
2022-08-25T20:22:31.668Z,99.90
2022-08-25T20:25:13.329Z,99.90
2022-08-25T20:27:51.446Z,99.90
2022-08-25T20:30:23.227Z,99.90
2022-08-25T20:32:55.461Z,99.90
2022-08-25T20:35:27.994Z,98.30
2022-08-25T20:37:57.111Z,99.30
2022-08-25T20:40:30.739Z,99.30
2022-08-25T20:43:01.964Z,99.20
2022-08-25T20:45:34.733Z,99.00
2022-08-25T20:48:02.233Z,98.70
2022-08-25T20:50:33.621Z,98.80
2022-08-25T20:53:05.686Z,99.10
2022-08-25T20:55:43.660Z,99.10
2022-08-25T20:58:14.264Z,99.10
2022-08-25T21:00:44.870Z,99.00
2022-08-25T21:03:12.385Z,99.30
2022-08-25T21:05:41.698Z,99.90
2022-08-25T21:08:11.418Z,99.80
2022-08-25T21:10:39.882Z,99.30
2022-08-25T21:13:12.176Z,99.10
2022-08-25T21:15:44.170Z,99.00
2022-08-25T21:18:14.016Z,99.10
2022-08-25T21:20:43.683Z,98.90
2022-08-25T21:23:18.505Z,98.50
2022-08-25T21:25:48.027Z,98.30
2022-08-25T21:28:18.127Z,98.30
2022-08-25T21:30:48.671Z,99.30
2022-08-25T21:33:17.936Z,98.40
2022-08-25T21:35:46.909Z,98.00
2022-08-25T21:38:19.832Z,98.30
2022-08-25T21:40:47.254Z,98.60
2022-08-25T21:43:16.397Z,98.60
2022-08-25T21:45:48.350Z,98.20
2022-08-25T21:48:21.422Z,98.70
2022-08-25T21:50:51.232Z,98.60
2022-08-25T21:53:20.798Z,98.40
2022-08-25T21:55:52.976Z,98.30
2022-08-25T21:58:22.606Z,98.20
2022-08-25T22:00:52.145Z,98.10
2022-08-25T22:03:23.475Z,98.40
2022-08-25T22:05:50.635Z,99.00
2022-08-25T22:08:20.146Z,98.80
2022-08-25T22:10:53.177Z,98.70
2022-08-25T22:13:23.939Z,98.40
2022-08-25T22:15:55.585Z,98.50
2022-08-25T22:18:27.354Z,98.20
2022-08-25T22:21:00.254Z,98.30
2022-08-25T22:23:44.521Z,98.70
2022-08-25T22:26:21.995Z,98.50
2022-08-25T22:28:51.677Z,98.00
2022-08-25T22:31:22.106Z,99.00
2022-08-25T22:33:53.201Z,98.60
2022-08-25T22:36:34.437Z,98.20
2022-08-25T22:39:08.085Z,97.90
2022-08-25T22:41:35.722Z,97.70
2022-08-25T22:44:13.630Z,97.10
2022-08-25T22:46:41.214Z,97.20
2022-08-25T22:49:14.485Z,96.80
2022-08-25T22:51:41.694Z,96.80
2022-08-25T22:54:14.911Z,96.60
2022-08-25T22:56:44.742Z,96.30
2022-08-25T22:59:13.161Z,96.20
2022-08-25T23:01:45.140Z,96.20
2022-08-25T23:04:15.098Z,96.30
2022-08-25T23:06:45.157Z,96.00
2022-08-25T23:09:14.454Z,96.30
2022-08-25T23:11:43.168Z,96.30
2022-08-25T23:14:13.069Z,96.40
2022-08-25T23:16:42.120Z,96.50
2022-08-25T23:19:14.269Z,97.00
2022-08-25T23:22:02.084Z,97.10
2022-08-25T23:24:34.518Z,97.50
2022-08-25T23:27:09.072Z,97.30
2022-08-25T23:29:39.880Z,97.90
2022-08-25T23:32:08.265Z,97.30
2022-08-25T23:34:38.358Z,97.90
2022-08-25T23:37:09.790Z,97.60
2022-08-25T23:39:39.178Z,98.60
2022-08-25T23:42:09.277Z,97.70
2022-08-25T23:44:36.864Z,98.90
2022-08-25T23:47:06.682Z,97.70
2022-08-25T23:49:37.915Z,98.90
2022-08-25T23:52:07.334Z,99.10
2022-08-25T23:54:36.855Z,99.60
2022-08-25T23:57:07.088Z,99.40
2022-08-25T23:59:39.025Z,99.40
